sensor_id;sensor_type;location;lat;lon;timestamp;P1;durP1;ratioP1;P2;durP2;ratioP2
51495;SDS011;37572;52.094;4.870;2024-02-28T00:00:54;13.30;;;8.60;;
51495;SDS011;37572;52.094;4.870;2024-02-28T00:03:19;12.30;;;7.30;;
51495;SDS011;37572;52.094;4.870;2024-02-28T00:05:44;12.85;;;8.15;;
51495;SDS011;37572;52.094;4.870;2024-02-28T00:08:10;11.30;;;8.43;;
51495;SDS011;37572;52.094;4.870;2024-02-28T00:10:36;12.50;;;8.00;;
51495;SDS011;37572;52.094;4.870;2024-02-28T00:13:01;11.02;;;7.72;;
51495;SDS011;37572;52.094;4.870;2024-02-28T00:15:26;11.17;;;8.70;;
51495;SDS011;37572;52.094;4.870;2024-02-28T00:17:52;11.77;;;7.80;;
51495;SDS011;37572;52.094;4.870;2024-02-28T00:20:19;12.00;;;7.68;;
51495;SDS011;37572;52.094;4.870;2024-02-28T00:22:44;10.57;;;7.67;;
51495;SDS011;37572;52.094;4.870;2024-02-28T00:25:10;10.57;;;7.90;;
51495;SDS011;37572;52.094;4.870;2024-02-28T00:27:36;12.35;;;8.50;;
51495;SDS011;37572;52.094;4.870;2024-02-28T00:30:02;13.93;;;8.82;;
51495;SDS011;37572;52.094;4.870;2024-02-28T00:32:31;11.18;;;8.88;;
51495;SDS011;37572;52.094;4.870;2024-02-28T00:34:56;11.43;;;9.07;;
51495;SDS011;37572;52.094;4.870;2024-02-28T00:37:21;12.47;;;7.90;;
51495;SDS011;37572;52.094;4.870;2024-02-28T00:39:47;12.67;;;9.93;;
51495;SDS011;37572;52.094;4.870;2024-02-28T00:42:12;11.37;;;8.03;;
51495;SDS011;37572;52.094;4.870;2024-02-28T00:44:37;11.80;;;8.77;;
51495;SDS011;37572;52.094;4.870;2024-02-28T00:47:03;13.93;;;9.33;;
51495;SDS011;37572;52.094;4.870;2024-02-28T00:49:28;11.63;;;9.00;;
51495;SDS011;37572;52.094;4.870;2024-02-28T00:51:53;12.23;;;9.45;;
51495;SDS011;37572;52.094;4.870;2024-02-28T00:54:18;11.50;;;8.80;;
51495;SDS011;37572;52.094;4.870;2024-02-28T00:56:44;13.77;;;8.07;;
51495;SDS011;37572;52.094;4.870;2024-02-28T00:59:09;13.00;;;8.67;;
51495;SDS011;37572;52.094;4.870;2024-02-28T01:01:37;10.30;;;8.10;;
51495;SDS011;37572;52.094;4.870;2024-02-28T01:04:03;12.73;;;8.80;;
51495;SDS011;37572;52.094;4.870;2024-02-28T01:06:28;11.45;;;9.13;;
51495;SDS011;37572;52.094;4.870;2024-02-28T01:08:53;12.43;;;9.73;;
51495;SDS011;37572;52.094;4.870;2024-02-28T01:11:18;14.67;;;9.67;;
51495;SDS011;37572;52.094;4.870;2024-02-28T01:13:44;13.17;;;8.37;;
51495;SDS011;37572;52.094;4.870;2024-02-28T01:16:09;14.33;;;9.07;;
51495;SDS011;37572;52.094;4.870;2024-02-28T01:18:34;13.20;;;8.67;;
51495;SDS011;37572;52.094;4.870;2024-02-28T01:21:00;10.80;;;8.43;;
51495;SDS011;37572;52.094;4.870;2024-02-28T01:23:25;12.20;;;8.87;;
51495;SDS011;37572;52.094;4.870;2024-02-28T01:25:50;13.07;;;9.60;;
51495;SDS011;37572;52.094;4.870;2024-02-28T01:28:15;11.87;;;9.37;;
51495;SDS011;37572;52.094;4.870;2024-02-28T01:30:41;11.40;;;8.90;;
51495;SDS011;37572;52.094;4.870;2024-02-28T01:33:06;11.63;;;8.60;;
51495;SDS011;37572;52.094;4.870;2024-02-28T01:35:31;13.13;;;8.40;;
51495;SDS011;37572;52.094;4.870;2024-02-28T01:37:57;14.35;;;8.75;;
51495;SDS011;37572;52.094;4.870;2024-02-28T01:40:22;12.23;;;9.00;;
51495;SDS011;37572;52.094;4.870;2024-02-28T01:42:47;11.80;;;8.47;;
51495;SDS011;37572;52.094;4.870;2024-02-28T01:45:13;13.85;;;8.85;;
51495;SDS011;37572;52.094;4.870;2024-02-28T01:47:40;11.95;;;9.20;;
51495;SDS011;37572;52.094;4.870;2024-02-28T01:50:06;13.60;;;8.90;;
51495;SDS011;37572;52.094;4.870;2024-02-28T01:52:32;13.27;;;8.90;;
51495;SDS011;37572;52.094;4.870;2024-02-28T01:54:58;14.10;;;10.18;;
51495;SDS011;37572;52.094;4.870;2024-02-28T01:57:24;14.95;;;9.50;;
51495;SDS011;37572;52.094;4.870;2024-02-28T01:59:49;14.55;;;10.30;;
51495;SDS011;37572;52.094;4.870;2024-02-28T02:02:15;13.50;;;10.13;;
51495;SDS011;37572;52.094;4.870;2024-02-28T02:04:40;14.13;;;8.93;;
51495;SDS011;37572;52.094;4.870;2024-02-28T02:07:05;16.07;;;9.53;;
51495;SDS011;37572;52.094;4.870;2024-02-28T02:09:32;13.10;;;9.63;;
51495;SDS011;37572;52.094;4.870;2024-02-28T02:11:59;14.32;;;10.13;;
51495;SDS011;37572;52.094;4.870;2024-02-28T02:14:24;12.40;;;9.03;;
51495;SDS011;37572;52.094;4.870;2024-02-28T02:16:49;14.73;;;9.87;;
51495;SDS011;37572;52.094;4.870;2024-02-28T02:19:15;14.20;;;8.47;;
51495;SDS011;37572;52.094;4.870;2024-02-28T02:21:41;13.40;;;9.50;;
51495;SDS011;37572;52.094;4.870;2024-02-28T02:24:13;14.85;;;9.23;;
51495;SDS011;37572;52.094;4.870;2024-02-28T02:26:38;13.63;;;8.70;;
51495;SDS011;37572;52.094;4.870;2024-02-28T02:29:04;14.27;;;10.30;;
51495;SDS011;37572;52.094;4.870;2024-02-28T02:31:29;11.57;;;9.13;;
51495;SDS011;37572;52.094;4.870;2024-02-28T02:33:55;13.95;;;10.05;;
51495;SDS011;37572;52.094;4.870;2024-02-28T02:36:20;17.35;;;10.35;;
51495;SDS011;37572;52.094;4.870;2024-02-28T02:38:46;14.15;;;10.75;;
51495;SDS011;37572;52.094;4.870;2024-02-28T02:41:12;15.33;;;9.57;;
51495;SDS011;37572;52.094;4.870;2024-02-28T02:43:38;12.52;;;9.52;;
51495;SDS011;37572;52.094;4.870;2024-02-28T02:46:03;14.27;;;9.90;;
51495;SDS011;37572;52.094;4.870;2024-02-28T02:48:28;13.90;;;10.48;;
51495;SDS011;37572;52.094;4.870;2024-02-28T02:50:54;16.97;;;10.27;;
51495;SDS011;37572;52.094;4.870;2024-02-28T02:53:19;15.33;;;10.20;;
51495;SDS011;37572;52.094;4.870;2024-02-28T02:55:45;13.73;;;10.35;;
51495;SDS011;37572;52.094;4.870;2024-02-28T02:58:10;13.50;;;9.48;;
51495;SDS011;37572;52.094;4.870;2024-02-28T03:00:36;15.47;;;11.13;;
51495;SDS011;37572;52.094;4.870;2024-02-28T03:03:01;16.97;;;9.87;;
51495;SDS011;37572;52.094;4.870;2024-02-28T03:05:26;14.13;;;9.33;;
51495;SDS011;37572;52.094;4.870;2024-02-28T03:07:52;18.80;;;10.37;;
51495;SDS011;37572;52.094;4.870;2024-02-28T03:10:17;15.80;;;10.60;;
51495;SDS011;37572;52.094;4.870;2024-02-28T03:12:42;16.83;;;9.40;;
51495;SDS011;37572;52.094;4.870;2024-02-28T03:15:07;17.23;;;10.80;;
51495;SDS011;37572;52.094;4.870;2024-02-28T03:17:33;16.40;;;10.98;;
51495;SDS011;37572;52.094;4.870;2024-02-28T03:19:58;14.50;;;9.53;;
51495;SDS011;37572;52.094;4.870;2024-02-28T03:22:24;15.70;;;10.50;;
51495;SDS011;37572;52.094;4.870;2024-02-28T03:24:49;14.88;;;9.98;;
51495;SDS011;37572;52.094;4.870;2024-02-28T03:27:14;18.73;;;10.43;;
51495;SDS011;37572;52.094;4.870;2024-02-28T03:29:40;18.70;;;12.20;;
51495;SDS011;37572;52.094;4.870;2024-02-28T03:32:05;16.17;;;10.70;;
51495;SDS011;37572;52.094;4.870;2024-02-28T03:34:31;16.60;;;10.80;;
51495;SDS011;37572;52.094;4.870;2024-02-28T03:36:56;16.33;;;10.73;;
51495;SDS011;37572;52.094;4.870;2024-02-28T03:39:21;16.97;;;10.53;;
51495;SDS011;37572;52.094;4.870;2024-02-28T03:41:46;19.30;;;10.97;;
51495;SDS011;37572;52.094;4.870;2024-02-28T03:44:13;19.10;;;12.35;;
51495;SDS011;37572;52.094;4.870;2024-02-28T03:46:38;20.75;;;11.65;;
51495;SDS011;37572;52.094;4.870;2024-02-28T03:49:03;22.17;;;12.50;;
51495;SDS011;37572;52.094;4.870;2024-02-28T03:51:29;20.97;;;12.20;;
51495;SDS011;37572;52.094;4.870;2024-02-28T03:53:57;19.15;;;12.02;;
51495;SDS011;37572;52.094;4.870;2024-02-28T03:56:22;21.37;;;10.93;;
51495;SDS011;37572;52.094;4.870;2024-02-28T03:58:50;21.50;;;11.27;;
51495;SDS011;37572;52.094;4.870;2024-02-28T04:01:15;25.83;;;14.73;;
51495;SDS011;37572;52.094;4.870;2024-02-28T04:03:41;22.63;;;12.15;;
51495;SDS011;37572;52.094;4.870;2024-02-28T04:06:06;22.23;;;12.05;;
51495;SDS011;37572;52.094;4.870;2024-02-28T04:08:32;24.53;;;12.67;;
51495;SDS011;37572;52.094;4.870;2024-02-28T04:10:57;24.93;;;14.03;;
51495;SDS011;37572;52.094;4.870;2024-02-28T04:13:22;21.40;;;11.50;;
51495;SDS011;37572;52.094;4.870;2024-02-28T04:15:47;25.07;;;12.03;;
51495;SDS011;37572;52.094;4.870;2024-02-28T04:18:13;23.63;;;13.53;;
51495;SDS011;37572;52.094;4.870;2024-02-28T04:20:38;25.42;;;14.00;;
51495;SDS011;37572;52.094;4.870;2024-02-28T04:23:04;22.70;;;13.33;;
51495;SDS011;37572;52.094;4.870;2024-02-28T04:25:29;25.42;;;13.90;;
51495;SDS011;37572;52.094;4.870;2024-02-28T04:27:54;26.55;;;14.15;;
51495;SDS011;37572;52.094;4.870;2024-02-28T04:30:20;26.08;;;15.23;;
51495;SDS011;37572;52.094;4.870;2024-02-28T04:32:46;25.17;;;14.63;;
51495;SDS011;37572;52.094;4.870;2024-02-28T04:35:11;23.40;;;13.80;;
51495;SDS011;37572;52.094;4.870;2024-02-28T04:37:36;27.20;;;13.77;;
51495;SDS011;37572;52.094;4.870;2024-02-28T04:40:02;21.80;;;11.90;;
51495;SDS011;37572;52.094;4.870;2024-02-28T04:42:28;21.40;;;13.05;;
51495;SDS011;37572;52.094;4.870;2024-02-28T04:44:53;23.53;;;13.27;;
51495;SDS011;37572;52.094;4.870;2024-02-28T04:47:19;23.00;;;13.33;;
51495;SDS011;37572;52.094;4.870;2024-02-28T04:49:44;21.80;;;11.00;;
51495;SDS011;37572;52.094;4.870;2024-02-28T04:52:09;21.20;;;13.02;;
51495;SDS011;37572;52.094;4.870;2024-02-28T04:54:35;21.30;;;12.23;;
51495;SDS011;37572;52.094;4.870;2024-02-28T04:57:00;24.17;;;14.47;;
51495;SDS011;37572;52.094;4.870;2024-02-28T04:59:25;21.27;;;12.35;;
51495;SDS011;37572;52.094;4.870;2024-02-28T05:01:51;23.42;;;13.45;;
51495;SDS011;37572;52.094;4.870;2024-02-28T05:04:17;23.05;;;13.43;;
51495;SDS011;37572;52.094;4.870;2024-02-28T05:06:42;24.38;;;13.57;;
51495;SDS011;37572;52.094;4.870;2024-02-28T05:09:07;28.33;;;13.43;;
51495;SDS011;37572;52.094;4.870;2024-02-28T05:11:33;24.63;;;14.23;;
51495;SDS011;37572;52.094;4.870;2024-02-28T05:13:59;26.15;;;14.32;;
51495;SDS011;37572;52.094;4.870;2024-02-28T05:16:24;25.83;;;13.32;;
51495;SDS011;37572;52.094;4.870;2024-02-28T05:18:49;25.07;;;13.87;;
51495;SDS011;37572;52.094;4.870;2024-02-28T05:21:15;26.87;;;14.60;;
51495;SDS011;37572;52.094;4.870;2024-02-28T05:23:40;26.73;;;15.17;;
51495;SDS011;37572;52.094;4.870;2024-02-28T05:26:05;25.00;;;15.37;;
51495;SDS011;37572;52.094;4.870;2024-02-28T05:28:32;27.40;;;16.58;;
51495;SDS011;37572;52.094;4.870;2024-02-28T05:30:59;26.08;;;15.88;;
51495;SDS011;37572;52.094;4.870;2024-02-28T05:33:35;25.63;;;15.52;;
51495;SDS011;37572;52.094;4.870;2024-02-28T05:36:00;25.37;;;15.10;;
51495;SDS011;37572;52.094;4.870;2024-02-28T05:38:25;28.80;;;16.53;;
51495;SDS011;37572;52.094;4.870;2024-02-28T05:40:51;31.33;;;16.80;;
51495;SDS011;37572;52.094;4.870;2024-02-28T05:43:16;26.07;;;16.67;;
51495;SDS011;37572;52.094;4.870;2024-02-28T05:45:41;32.47;;;16.33;;
51495;SDS011;37572;52.094;4.870;2024-02-28T05:48:06;32.47;;;19.07;;
51495;SDS011;37572;52.094;4.870;2024-02-28T05:50:32;32.43;;;18.40;;
51495;SDS011;37572;52.094;4.870;2024-02-28T05:52:57;28.70;;;16.38;;
51495;SDS011;37572;52.094;4.870;2024-02-28T05:55:23;31.10;;;17.73;;
51495;SDS011;37572;52.094;4.870;2024-02-28T05:57:49;26.30;;;17.38;;
51495;SDS011;37572;52.094;4.870;2024-02-28T06:00:14;28.63;;;17.73;;
51495;SDS011;37572;52.094;4.870;2024-02-28T06:02:39;33.22;;;19.95;;
51495;SDS011;37572;52.094;4.870;2024-02-28T06:05:05;31.15;;;17.13;;
51495;SDS011;37572;52.094;4.870;2024-02-28T06:07:32;28.70;;;17.75;;
51495;SDS011;37572;52.094;4.870;2024-02-28T06:09:58;31.77;;;18.02;;
51495;SDS011;37572;52.094;4.870;2024-02-28T06:12:23;28.55;;;17.27;;
51495;SDS011;37572;52.094;4.870;2024-02-28T06:14:49;30.63;;;19.67;;
51495;SDS011;37572;52.094;4.870;2024-02-28T06:17:14;27.10;;;18.07;;
51495;SDS011;37572;52.094;4.870;2024-02-28T06:19:39;31.23;;;19.00;;
51495;SDS011;37572;52.094;4.870;2024-02-28T06:22:04;30.53;;;18.80;;
51495;SDS011;37572;52.094;4.870;2024-02-28T06:24:33;32.92;;;19.92;;
51495;SDS011;37572;52.094;4.870;2024-02-28T06:26:59;28.67;;;17.70;;
51495;SDS011;37572;52.094;4.870;2024-02-28T06:29:24;33.37;;;19.97;;
51495;SDS011;37572;52.094;4.870;2024-02-28T06:31:50;29.92;;;19.80;;
51495;SDS011;37572;52.094;4.870;2024-02-28T06:34:16;30.42;;;20.55;;
51495;SDS011;37572;52.094;4.870;2024-02-28T06:36:42;34.28;;;20.38;;
51495;SDS011;37572;52.094;4.870;2024-02-28T06:39:07;29.83;;;19.70;;
51495;SDS011;37572;52.094;4.870;2024-02-28T06:41:32;29.13;;;18.98;;
51495;SDS011;37572;52.094;4.870;2024-02-28T06:43:58;35.20;;;22.63;;
51495;SDS011;37572;52.094;4.870;2024-02-28T06:46:23;33.17;;;20.38;;
51495;SDS011;37572;52.094;4.870;2024-02-28T06:48:50;32.17;;;21.58;;
51495;SDS011;37572;52.094;4.870;2024-02-28T06:51:16;34.90;;;21.95;;
51495;SDS011;37572;52.094;4.870;2024-02-28T06:53:42;32.47;;;20.90;;
51495;SDS011;37572;52.094;4.870;2024-02-28T06:56:07;35.23;;;20.97;;
51495;SDS011;37572;52.094;4.870;2024-02-28T06:58:33;35.92;;;21.27;;
51495;SDS011;37572;52.094;4.870;2024-02-28T07:00:59;36.53;;;22.08;;
51495;SDS011;37572;52.094;4.870;2024-02-28T07:03:25;34.58;;;21.48;;
51495;SDS011;37572;52.094;4.870;2024-02-28T07:05:50;34.80;;;22.70;;
51495;SDS011;37572;52.094;4.870;2024-02-28T07:08:15;38.13;;;23.23;;
51495;SDS011;37572;52.094;4.870;2024-02-28T07:10:41;36.93;;;23.13;;
51495;SDS011;37572;52.094;4.870;2024-02-28T07:13:08;39.80;;;25.05;;
51495;SDS011;37572;52.094;4.870;2024-02-28T07:15:34;35.45;;;22.35;;
51495;SDS011;37572;52.094;4.870;2024-02-28T07:17:59;37.67;;;24.53;;
51495;SDS011;37572;52.094;4.870;2024-02-28T07:20:24;38.43;;;24.70;;
51495;SDS011;37572;52.094;4.870;2024-02-28T07:22:49;40.25;;;23.77;;
51495;SDS011;37572;52.094;4.870;2024-02-28T07:25:15;41.57;;;24.30;;
51495;SDS011;37572;52.094;4.870;2024-02-28T07:27:40;40.90;;;26.27;;
51495;SDS011;37572;52.094;4.870;2024-02-28T07:30:05;41.37;;;24.43;;
51495;SDS011;37572;52.094;4.870;2024-02-28T07:32:31;36.70;;;24.23;;
51495;SDS011;37572;52.094;4.870;2024-02-28T07:34:59;38.10;;;24.17;;
51495;SDS011;37572;52.094;4.870;2024-02-28T07:37:25;40.40;;;24.55;;
51495;SDS011;37572;52.094;4.870;2024-02-28T07:39:51;46.00;;;25.27;;
51495;SDS011;37572;52.094;4.870;2024-02-28T07:42:16;40.13;;;25.40;;
51495;SDS011;37572;52.094;4.870;2024-02-28T07:44:42;44.40;;;24.40;;
51495;SDS011;37572;52.094;4.870;2024-02-28T07:47:08;36.63;;;24.80;;
51495;SDS011;37572;52.094;4.870;2024-02-28T07:49:33;41.17;;;27.23;;
51495;SDS011;37572;52.094;4.870;2024-02-28T07:51:58;42.35;;;25.25;;
51495;SDS011;37572;52.094;4.870;2024-02-28T07:54:24;36.43;;;24.20;;
51495;SDS011;37572;52.094;4.870;2024-02-28T07:56:50;37.22;;;23.80;;
51495;SDS011;37572;52.094;4.870;2024-02-28T07:59:15;37.42;;;23.23;;
51495;SDS011;37572;52.094;4.870;2024-02-28T08:01:40;34.00;;;24.38;;
51495;SDS011;37572;52.094;4.870;2024-02-28T08:04:06;38.20;;;24.67;;
51495;SDS011;37572;52.094;4.870;2024-02-28T08:06:31;41.37;;;25.80;;
51495;SDS011;37572;52.094;4.870;2024-02-28T08:08:58;38.17;;;24.63;;
51495;SDS011;37572;52.094;4.870;2024-02-28T08:11:23;39.97;;;24.75;;
51495;SDS011;37572;52.094;4.870;2024-02-28T08:13:50;38.97;;;23.27;;
51495;SDS011;37572;52.094;4.870;2024-02-28T08:16:15;34.85;;;23.67;;
51495;SDS011;37572;52.094;4.870;2024-02-28T08:18:41;37.33;;;22.83;;
51495;SDS011;37572;52.094;4.870;2024-02-28T08:21:06;36.78;;;23.70;;
51495;SDS011;37572;52.094;4.870;2024-02-28T08:23:31;35.63;;;21.98;;
51495;SDS011;37572;52.094;4.870;2024-02-28T08:25:57;34.43;;;21.30;;
51495;SDS011;37572;52.094;4.870;2024-02-28T08:28:22;37.90;;;21.10;;
51495;SDS011;37572;52.094;4.870;2024-02-28T08:30:48;29.63;;;20.90;;
51495;SDS011;37572;52.094;4.870;2024-02-28T08:33:13;29.80;;;20.15;;
51495;SDS011;37572;52.094;4.870;2024-02-28T08:35:38;31.23;;;19.63;;
51495;SDS011;37572;52.094;4.870;2024-02-28T08:38:04;31.23;;;17.73;;
51495;SDS011;37572;52.094;4.870;2024-02-28T08:40:29;27.77;;;19.57;;
51495;SDS011;37572;52.094;4.870;2024-02-28T08:42:55;32.10;;;20.40;;
51495;SDS011;37572;52.094;4.870;2024-02-28T08:45:22;28.48;;;19.55;;
51495;SDS011;37572;52.094;4.870;2024-02-28T08:47:48;32.10;;;19.73;;
51495;SDS011;37572;52.094;4.870;2024-02-28T08:50:13;27.93;;;18.23;;
51495;SDS011;37572;52.094;4.870;2024-02-28T08:52:38;32.80;;;20.57;;
51495;SDS011;37572;52.094;4.870;2024-02-28T08:55:04;32.40;;;21.17;;
51495;SDS011;37572;52.094;4.870;2024-02-28T08:57:29;29.42;;;20.60;;
51495;SDS011;37572;52.094;4.870;2024-02-28T08:59:55;32.58;;;20.52;;
51495;SDS011;37572;52.094;4.870;2024-02-28T09:02:21;26.13;;;19.42;;
51495;SDS011;37572;52.094;4.870;2024-02-28T09:04:46;31.05;;;20.23;;
51495;SDS011;37572;52.094;4.870;2024-02-28T09:07:16;27.27;;;18.05;;
51495;SDS011;37572;52.094;4.870;2024-02-28T09:09:44;30.42;;;19.65;;
51495;SDS011;37572;52.094;4.870;2024-02-28T09:12:10;30.85;;;20.63;;
51495;SDS011;37572;52.094;4.870;2024-02-28T09:14:35;28.77;;;19.27;;
51495;SDS011;37572;52.094;4.870;2024-02-28T09:17:01;29.33;;;19.52;;
51495;SDS011;37572;52.094;4.870;2024-02-28T09:19:32;25.85;;;17.67;;
51495;SDS011;37572;52.094;4.870;2024-02-28T09:21:57;29.17;;;17.85;;
51495;SDS011;37572;52.094;4.870;2024-02-28T09:24:23;30.38;;;19.52;;
51495;SDS011;37572;52.094;4.870;2024-02-28T09:26:49;27.95;;;19.60;;
51495;SDS011;37572;52.094;4.870;2024-02-28T09:29:14;25.53;;;17.60;;
51495;SDS011;37572;52.094;4.870;2024-02-28T09:31:41;28.13;;;18.43;;
51495;SDS011;37572;52.094;4.870;2024-02-28T09:34:06;29.17;;;20.23;;
51495;SDS011;37572;52.094;4.870;2024-02-28T09:36:41;25.55;;;17.77;;
51495;SDS011;37572;52.094;4.870;2024-02-28T09:39:07;26.70;;;18.48;;
51495;SDS011;37572;52.094;4.870;2024-02-28T09:41:32;27.83;;;18.17;;
51495;SDS011;37572;52.094;4.870;2024-02-28T09:43:58;26.23;;;17.60;;
51495;SDS011;37572;52.094;4.870;2024-02-28T09:46:27;29.95;;;20.58;;
51495;SDS011;37572;52.094;4.870;2024-02-28T09:48:53;29.63;;;19.45;;
51495;SDS011;37572;52.094;4.870;2024-02-28T09:51:20;29.35;;;19.92;;
51495;SDS011;37572;52.094;4.870;2024-02-28T09:53:46;27.20;;;19.13;;
51495;SDS011;37572;52.094;4.870;2024-02-28T09:56:12;31.02;;;20.58;;
51495;SDS011;37572;52.094;4.870;2024-02-28T09:58:38;29.42;;;20.30;;
51495;SDS011;37572;52.094;4.870;2024-02-28T10:01:04;28.80;;;19.15;;
51495;SDS011;37572;52.094;4.870;2024-02-28T10:03:34;30.30;;;19.42;;
51495;SDS011;37572;52.094;4.870;2024-02-28T10:06:01;28.02;;;19.23;;
51495;SDS011;37572;52.094;4.870;2024-02-28T10:08:26;29.33;;;19.75;;
51495;SDS011;37572;52.094;4.870;2024-02-28T10:10:54;29.08;;;19.40;;
51495;SDS011;37572;52.094;4.870;2024-02-28T10:13:20;27.63;;;19.65;;
51495;SDS011;37572;52.094;4.870;2024-02-28T10:15:47;24.55;;;17.63;;
51495;SDS011;37572;52.094;4.870;2024-02-28T10:18:14;23.77;;;17.52;;
51495;SDS011;37572;52.094;4.870;2024-02-28T10:20:39;25.87;;;16.70;;
51495;SDS011;37572;52.094;4.870;2024-02-28T10:23:04;23.73;;;17.15;;
51495;SDS011;37572;52.094;4.870;2024-02-28T10:25:31;22.08;;;15.43;;
51495;SDS011;37572;52.094;4.870;2024-02-28T10:28:00;24.88;;;16.35;;
51495;SDS011;37572;52.094;4.870;2024-02-28T10:30:26;24.58;;;17.52;;
51495;SDS011;37572;52.094;4.870;2024-02-28T10:32:52;24.52;;;16.15;;
51495;SDS011;37572;52.094;4.870;2024-02-28T10:35:17;19.80;;;16.03;;
51495;SDS011;37572;52.094;4.870;2024-02-28T10:37:50;22.77;;;16.05;;
51495;SDS011;37572;52.094;4.870;2024-02-28T10:40:16;21.85;;;16.42;;
51495;SDS011;37572;52.094;4.870;2024-02-28T10:42:42;25.05;;;15.38;;
51495;SDS011;37572;52.094;4.870;2024-02-28T10:45:10;24.52;;;17.15;;
51495;SDS011;37572;52.094;4.870;2024-02-28T10:47:38;26.67;;;17.38;;
51495;SDS011;37572;52.094;4.870;2024-02-28T10:50:04;23.98;;;17.15;;
51495;SDS011;37572;52.094;4.870;2024-02-28T10:52:30;22.92;;;15.93;;
51495;SDS011;37572;52.094;4.870;2024-02-28T10:54:58;25.00;;;17.95;;
51495;SDS011;37572;52.094;4.870;2024-02-28T10:57:25;25.88;;;17.13;;
51495;SDS011;37572;52.094;4.870;2024-02-28T10:59:51;25.70;;;17.55;;
51495;SDS011;37572;52.094;4.870;2024-02-28T11:02:17;29.85;;;19.15;;
51495;SDS011;37572;52.094;4.870;2024-02-28T11:04:44;26.55;;;17.95;;
51495;SDS011;37572;52.094;4.870;2024-02-28T11:07:09;27.65;;;18.48;;
51495;SDS011;37572;52.094;4.870;2024-02-28T11:09:35;27.43;;;19.03;;
51495;SDS011;37572;52.094;4.870;2024-02-28T11:12:00;24.92;;;18.42;;
51495;SDS011;37572;52.094;4.870;2024-02-28T11:14:25;24.77;;;16.67;;
51495;SDS011;37572;52.094;4.870;2024-02-28T11:17:01;23.88;;;16.88;;
51495;SDS011;37572;52.094;4.870;2024-02-28T11:19:28;24.88;;;17.23;;
51495;SDS011;37572;52.094;4.870;2024-02-28T11:21:56;23.98;;;16.60;;
51495;SDS011;37572;52.094;4.870;2024-02-28T11:24:22;26.38;;;16.90;;
51495;SDS011;37572;52.094;4.870;2024-02-28T11:26:53;25.52;;;16.98;;
51495;SDS011;37572;52.094;4.870;2024-02-28T11:29:25;22.60;;;17.27;;
51495;SDS011;37572;52.094;4.870;2024-02-28T11:31:51;23.92;;;17.25;;
51495;SDS011;37572;52.094;4.870;2024-02-28T11:34:17;24.65;;;16.17;;
51495;SDS011;37572;52.094;4.870;2024-02-28T11:36:43;26.13;;;16.48;;
51495;SDS011;37572;52.094;4.870;2024-02-28T11:39:08;27.83;;;18.70;;
51495;SDS011;37572;52.094;4.870;2024-02-28T11:41:33;27.00;;;17.80;;
51495;SDS011;37572;52.094;4.870;2024-02-28T11:43:59;24.30;;;16.60;;
51495;SDS011;37572;52.094;4.870;2024-02-28T11:46:26;25.65;;;17.73;;
51495;SDS011;37572;52.094;4.870;2024-02-28T11:48:51;24.05;;;16.42;;
51495;SDS011;37572;52.094;4.870;2024-02-28T11:51:17;25.17;;;16.40;;
51495;SDS011;37572;52.094;4.870;2024-02-28T11:53:42;25.50;;;17.20;;
51495;SDS011;37572;52.094;4.870;2024-02-28T11:56:07;21.80;;;14.47;;
51495;SDS011;37572;52.094;4.870;2024-02-28T11:58:35;23.98;;;15.90;;
51495;SDS011;37572;52.094;4.870;2024-02-28T12:01:00;21.43;;;15.57;;
51495;SDS011;37572;52.094;4.870;2024-02-28T12:03:26;27.00;;;17.10;;
51495;SDS011;37572;52.094;4.870;2024-02-28T12:05:52;23.30;;;16.23;;
51495;SDS011;37572;52.094;4.870;2024-02-28T12:08:18;28.10;;;16.02;;
51495;SDS011;37572;52.094;4.870;2024-02-28T12:10:44;31.13;;;18.30;;
51495;SDS011;37572;52.094;4.870;2024-02-28T12:13:10;25.45;;;17.17;;
51495;SDS011;37572;52.094;4.870;2024-02-28T12:15:38;26.70;;;16.48;;
51495;SDS011;37572;52.094;4.870;2024-02-28T12:18:09;25.75;;;16.60;;
51495;SDS011;37572;52.094;4.870;2024-02-28T12:20:37;25.13;;;16.10;;
51495;SDS011;37572;52.094;4.870;2024-02-28T12:23:05;24.30;;;15.87;;
51495;SDS011;37572;52.094;4.870;2024-02-28T12:25:32;23.48;;;15.05;;
51495;SDS011;37572;52.094;4.870;2024-02-28T12:27:57;25.65;;;15.73;;
51495;SDS011;37572;52.094;4.870;2024-02-28T12:30:22;24.20;;;15.93;;
51495;SDS011;37572;52.094;4.870;2024-02-28T12:32:48;22.60;;;16.95;;
51495;SDS011;37572;52.094;4.870;2024-02-28T12:35:13;23.07;;;16.47;;
51495;SDS011;37572;52.094;4.870;2024-02-28T12:37:38;23.83;;;15.52;;
51495;SDS011;37572;52.094;4.870;2024-02-28T12:40:04;23.10;;;16.30;;
51495;SDS011;37572;52.094;4.870;2024-02-28T12:42:30;22.73;;;16.23;;
51495;SDS011;37572;52.094;4.870;2024-02-28T12:44:56;24.15;;;15.45;;
51495;SDS011;37572;52.094;4.870;2024-02-28T12:47:22;24.23;;;16.00;;
51495;SDS011;37572;52.094;4.870;2024-02-28T12:49:47;25.37;;;14.67;;
51495;SDS011;37572;52.094;4.870;2024-02-28T12:52:12;24.07;;;15.67;;
51495;SDS011;37572;52.094;4.870;2024-02-28T12:54:37;25.80;;;17.37;;
51495;SDS011;37572;52.094;4.870;2024-02-28T12:57:03;28.83;;;17.90;;
51495;SDS011;37572;52.094;4.870;2024-02-28T12:59:31;30.38;;;18.50;;
51495;SDS011;37572;52.094;4.870;2024-02-28T13:01:56;32.75;;;19.98;;
51495;SDS011;37572;52.094;4.870;2024-02-28T13:04:21;33.40;;;21.55;;
51495;SDS011;37572;52.094;4.870;2024-02-28T13:06:47;34.88;;;22.65;;
51495;SDS011;37572;52.094;4.870;2024-02-28T13:09:12;36.60;;;21.40;;
51495;SDS011;37572;52.094;4.870;2024-02-28T13:11:38;34.83;;;21.63;;
51495;SDS011;37572;52.094;4.870;2024-02-28T13:14:03;32.60;;;22.00;;
51495;SDS011;37572;52.094;4.870;2024-02-28T13:16:29;32.47;;;19.48;;
51495;SDS011;37572;52.094;4.870;2024-02-28T13:18:55;31.00;;;19.67;;
51495;SDS011;37572;52.094;4.870;2024-02-28T13:21:20;34.80;;;21.30;;
51495;SDS011;37572;52.094;4.870;2024-02-28T13:23:45;34.47;;;20.13;;
51495;SDS011;37572;52.094;4.870;2024-02-28T13:26:11;41.50;;;22.17;;
51495;SDS011;37572;52.094;4.870;2024-02-28T13:28:42;37.80;;;22.77;;
51495;SDS011;37572;52.094;4.870;2024-02-28T13:31:09;38.05;;;23.20;;
51495;SDS011;37572;52.094;4.870;2024-02-28T13:33:34;40.10;;;23.50;;
51495;SDS011;37572;52.094;4.870;2024-02-28T13:36:01;39.33;;;24.73;;
51495;SDS011;37572;52.094;4.870;2024-02-28T13:38:27;42.53;;;24.50;;
51495;SDS011;37572;52.094;4.870;2024-02-28T13:40:52;41.47;;;25.83;;
51495;SDS011;37572;52.094;4.870;2024-02-28T13:43:18;41.75;;;24.65;;
51495;SDS011;37572;52.094;4.870;2024-02-28T13:45:47;36.97;;;22.90;;
51495;SDS011;37572;52.094;4.870;2024-02-28T13:48:25;41.58;;;24.60;;
51495;SDS011;37572;52.094;4.870;2024-02-28T13:50:52;43.30;;;25.35;;
51495;SDS011;37572;52.094;4.870;2024-02-28T13:53:17;43.80;;;26.05;;
51495;SDS011;37572;52.094;4.870;2024-02-28T13:55:43;46.92;;;26.45;;
51495;SDS011;37572;52.094;4.870;2024-02-28T13:58:12;44.35;;;23.83;;
51495;SDS011;37572;52.094;4.870;2024-02-28T14:00:38;39.30;;;23.60;;
51495;SDS011;37572;52.094;4.870;2024-02-28T14:03:04;43.25;;;24.75;;
51495;SDS011;37572;52.094;4.870;2024-02-28T14:05:33;45.75;;;26.13;;
51495;SDS011;37572;52.094;4.870;2024-02-28T14:07:58;47.03;;;26.50;;
51495;SDS011;37572;52.094;4.870;2024-02-28T14:10:24;43.63;;;25.03;;
51495;SDS011;37572;52.094;4.870;2024-02-28T14:12:50;45.25;;;26.52;;
51495;SDS011;37572;52.094;4.870;2024-02-28T14:15:17;41.72;;;23.65;;